createdAt,value
2017-10-20T00:00:13.557Z,37.73
2017-10-20T00:02:39.945Z,31.50
2017-10-20T00:05:06.353Z,30.20
2017-10-20T00:07:32.764Z,34.57
2017-10-20T00:09:59.906Z,30.70
2017-10-20T00:12:27.039Z,34.37
2017-10-20T00:14:53.455Z,36.10
2017-10-20T00:17:19.906Z,33.50
2017-10-20T00:19:46.334Z,32.50
2017-10-20T00:22:12.747Z,30.37
2017-10-20T00:24:39.166Z,34.27
2017-10-20T00:27:05.595Z,30.87
2017-10-20T00:29:31.993Z,32.90
2017-10-20T00:31:58.398Z,31.37
2017-10-20T00:34:24.823Z,38.13
2017-10-20T00:36:51.250Z,39.00
2017-10-20T00:39:17.673Z,38.53
2017-10-20T00:41:44.075Z,40.23
2017-10-20T00:44:10.519Z,43.90
2017-10-20T00:46:37.003Z,42.83
2017-10-20T00:49:03.405Z,40.47
2017-10-20T00:51:29.816Z,42.80
2017-10-20T00:53:56.244Z,34.97
2017-10-20T00:56:22.680Z,42.77
2017-10-20T00:58:49.119Z,43.03
2017-10-20T01:01:15.605Z,38.20
2017-10-20T01:03:42.799Z,39.90
2017-10-20T01:06:09.224Z,35.67
2017-10-20T01:08:35.640Z,39.27
2017-10-20T01:11:02.792Z,34.00
2017-10-20T01:13:29.921Z,40.37
2017-10-20T01:15:56.378Z,38.60
2017-10-20T01:18:23.625Z,43.77
2017-10-20T01:20:50.820Z,45.00
2017-10-20T01:23:17.277Z,42.37
2017-10-20T01:25:43.756Z,48.67
2017-10-20T01:28:10.203Z,41.57
2017-10-20T01:30:36.652Z,38.43
2017-10-20T01:33:03.116Z,43.67
2017-10-20T01:35:29.556Z,43.87
2017-10-20T01:37:57.518Z,42.50
2017-10-20T01:40:23.969Z,42.23
2017-10-20T01:42:51.152Z,48.43
2017-10-20T01:45:17.595Z,40.13
2017-10-20T01:47:44.054Z,37.53
2017-10-20T01:50:10.509Z,41.00
2017-10-20T01:52:38.425Z,38.07
2017-10-20T01:55:04.861Z,40.47
2017-10-20T01:57:31.306Z,41.77
2017-10-20T01:59:57.761Z,38.57
2017-10-20T02:02:24.307Z,40.20
2017-10-20T02:04:52.237Z,42.13
2017-10-20T02:07:18.643Z,39.57
2017-10-20T02:09:45.799Z,46.93
2017-10-20T02:12:12.249Z,36.17
2017-10-20T02:14:38.695Z,39.60
2017-10-20T02:17:05.122Z,39.63
2017-10-20T02:19:31.523Z,35.50
2017-10-20T02:21:58.002Z,37.67
2017-10-20T02:24:24.469Z,34.83
2017-10-20T02:26:50.907Z,44.43
2017-10-20T02:29:17.333Z,37.50
2017-10-20T02:31:43.769Z,48.47
2017-10-20T02:34:10.948Z,46.60
2017-10-20T02:36:37.422Z,47.30
2017-10-20T02:39:03.854Z,50.07
2017-10-20T02:41:30.320Z,38.53
2017-10-20T02:43:57.520Z,39.00
2017-10-20T02:46:23.974Z,46.60
2017-10-20T02:48:50.395Z,44.40
2017-10-20T02:51:16.833Z,38.57
2017-10-20T02:53:43.268Z,51.53
2017-10-20T02:56:09.838Z,46.50
2017-10-20T02:58:36.286Z,41.60
2017-10-20T03:01:03.460Z,43.33
2017-10-20T03:03:29.888Z,42.23
2017-10-20T03:05:56.312Z,49.00
2017-10-20T03:08:22.924Z,42.53
2017-10-20T03:10:49.343Z,35.83
2017-10-20T03:13:15.779Z,48.90
2017-10-20T03:15:42.218Z,37.93
2017-10-20T03:18:08.842Z,44.10
2017-10-20T03:20:35.235Z,49.87
2017-10-20T03:23:01.656Z,43.83
2017-10-20T03:25:28.109Z,42.10
2017-10-20T03:27:54.531Z,40.47
2017-10-20T03:30:20.929Z,47.83
2017-10-20T03:32:48.080Z,36.10
2017-10-20T03:35:15.244Z,40.57
2017-10-20T03:37:42.454Z,39.97
2017-10-20T03:40:10.367Z,37.73
2017-10-20T03:42:36.773Z,41.37
2017-10-20T03:45:03.951Z,36.33
2017-10-20T03:47:31.108Z,40.50
2017-10-20T03:49:57.504Z,42.97
2017-10-20T03:52:23.925Z,44.10
2017-10-20T03:54:50.312Z,39.70
2017-10-20T03:57:16.749Z,45.47
2017-10-20T03:59:43.162Z,44.80
2017-10-20T04:02:09.567Z,49.33
2017-10-20T04:04:37.494Z,42.50
2017-10-20T04:07:03.938Z,51.57
2017-10-20T04:09:30.401Z,42.33
2017-10-20T04:11:58.392Z,45.70
2017-10-20T04:14:24.858Z,38.67
2017-10-20T04:16:51.362Z,43.90
2017-10-20T04:19:17.837Z,47.93
2017-10-20T04:21:44.252Z,42.67
2017-10-20T04:24:10.674Z,44.20
2017-10-20T04:26:37.145Z,44.27
2017-10-20T04:29:03.606Z,55.53
2017-10-20T04:31:30.782Z,49.93
2017-10-20T04:33:57.217Z,47.50
2017-10-20T04:36:23.668Z,44.13
2017-10-20T04:38:50.120Z,49.17
2017-10-20T04:41:16.555Z,48.40
2017-10-20T04:43:43.006Z,44.37
2017-10-20T04:46:09.391Z,44.40
2017-10-20T04:48:35.820Z,50.40
2017-10-20T04:51:02.245Z,43.10
2017-10-20T04:53:29.395Z,59.17
2017-10-20T04:55:55.846Z,57.50
2017-10-20T04:58:22.286Z,40.97
2017-10-20T05:00:48.701Z,53.53
2017-10-20T05:03:15.105Z,60.57
2017-10-20T05:05:42.295Z,59.73
2017-10-20T05:08:08.743Z,48.53
2017-10-20T05:10:35.154Z,45.57
2017-10-20T05:13:01.622Z,56.93
2017-10-20T05:15:28.066Z,50.93
2017-10-20T05:17:55.210Z,47.13
2017-10-20T05:20:21.627Z,44.97
2017-10-20T05:22:48.045Z,55.30
2017-10-20T05:25:14.531Z,49.43
2017-10-20T05:27:41.854Z,45.37
2017-10-20T05:30:09.760Z,56.27
2017-10-20T05:32:36.926Z,41.37
2017-10-20T05:35:03.447Z,61.53
2017-10-20T05:37:30.024Z,42.33
2017-10-20T05:39:56.434Z,59.37
2017-10-20T05:42:22.854Z,44.80
2017-10-20T05:44:50.073Z,44.10
2017-10-20T05:47:18.001Z,45.33
2017-10-20T05:49:44.476Z,46.53
2017-10-20T05:52:10.932Z,45.57
2017-10-20T05:54:38.116Z,45.70
2017-10-20T05:57:05.352Z,43.10
2017-10-20T05:59:31.796Z,46.23
2017-10-20T06:01:58.232Z,41.87
2017-10-20T06:04:24.684Z,51.63
2017-10-20T06:06:51.118Z,47.87
2017-10-20T06:09:17.530Z,43.13
2017-10-20T06:11:44.030Z,49.47
2017-10-20T06:14:10.458Z,48.20
2017-10-20T06:16:38.366Z,45.23
2017-10-20T06:19:04.766Z,48.53
2017-10-20T06:21:31.947Z,44.83
2017-10-20T06:23:58.374Z,45.00
2017-10-20T06:26:24.794Z,41.43
2017-10-20T06:28:52.024Z,51.53
2017-10-20T06:31:32.562Z,46.37
2017-10-20T06:33:59.806Z,41.10
2017-10-20T06:36:26.303Z,44.13
2017-10-20T06:38:52.749Z,43.00
2017-10-20T06:41:19.233Z,40.70
2017-10-20T06:43:45.654Z,51.83
2017-10-20T06:46:12.054Z,44.40
2017-10-20T06:48:38.535Z,41.07
2017-10-20T06:51:04.978Z,44.43
2017-10-20T06:53:31.436Z,44.73
2017-10-20T06:55:58.633Z,38.70
2017-10-20T06:58:25.097Z,46.77
2017-10-20T07:00:51.630Z,42.93
2017-10-20T07:03:18.108Z,38.20
2017-10-20T07:05:44.593Z,38.53
2017-10-20T07:08:11.103Z,37.67
2017-10-20T07:10:37.578Z,38.67
2017-10-20T07:13:04.027Z,41.87
2017-10-20T07:15:30.532Z,37.70
2017-10-20T07:17:57.740Z,43.13
2017-10-20T07:20:36.027Z,44.23
2017-10-20T07:23:02.523Z,38.77
2017-10-20T07:25:28.964Z,36.30
2017-10-20T07:27:56.088Z,42.70
2017-10-20T07:30:22.573Z,43.80
2017-10-20T07:32:49.108Z,39.73
2017-10-20T07:35:15.524Z,43.73
2017-10-20T07:37:42.750Z,44.37
2017-10-20T07:40:10.017Z,43.70
2017-10-20T07:42:37.355Z,50.77
2017-10-20T07:45:04.064Z,55.37
2017-10-20T07:47:30.461Z,53.30
2017-10-20T07:49:57.621Z,48.60
2017-10-20T07:52:24.058Z,44.57
2017-10-20T07:54:50.459Z,58.47
2017-10-20T07:57:16.888Z,46.10
2017-10-20T07:59:43.373Z,47.10
2017-10-20T08:02:09.786Z,40.90
2017-10-20T08:04:36.969Z,49.43
2017-10-20T08:07:03.380Z,43.50
2017-10-20T08:09:29.796Z,46.00
2017-10-20T08:11:56.947Z,46.07
2017-10-20T08:14:23.444Z,52.40
2017-10-20T08:16:49.916Z,47.37
2017-10-20T08:19:16.350Z,46.57
2017-10-20T08:21:42.778Z,47.93
2017-10-20T08:24:09.905Z,42.43
2017-10-20T08:26:37.062Z,48.20
2017-10-20T08:29:03.521Z,47.00
2017-10-20T08:31:30.001Z,46.53
2017-10-20T08:33:56.456Z,48.83
2017-10-20T08:36:23.613Z,42.63
2017-10-20T08:38:50.869Z,43.23
2017-10-20T08:41:17.343Z,40.83
2017-10-20T08:43:43.798Z,41.93
2017-10-20T08:46:10.395Z,44.80
2017-10-20T08:48:36.830Z,41.03
2017-10-20T08:51:03.265Z,44.13
2017-10-20T08:53:29.776Z,40.40
2017-10-20T08:55:56.284Z,40.73
2017-10-20T08:58:22.805Z,40.50
2017-10-20T09:00:49.246Z,41.17
2017-10-20T09:03:15.629Z,40.90
2017-10-20T09:05:42.937Z,41.73
2017-10-20T09:08:10.127Z,39.90
2017-10-20T09:10:37.243Z,41.33
2017-10-20T09:13:04.395Z,40.43
2017-10-20T09:15:30.780Z,38.77
2017-10-20T09:17:57.354Z,41.00
2017-10-20T09:20:23.778Z,45.20
2017-10-20T09:22:50.169Z,46.37
2017-10-20T09:25:16.605Z,40.60
2017-10-20T09:27:43.107Z,40.80
2017-10-20T09:30:09.652Z,41.93
2017-10-20T09:32:36.118Z,44.10
2017-10-20T09:35:02.634Z,45.87
2017-10-20T09:37:29.058Z,43.67
2017-10-20T09:39:56.221Z,44.47
2017-10-20T09:42:22.615Z,43.07
2017-10-20T09:44:49.111Z,45.07
2017-10-20T09:47:15.558Z,41.80
2017-10-20T09:49:41.964Z,42.70
2017-10-20T09:52:08.475Z,42.33
2017-10-20T09:54:35.654Z,40.47
2017-10-20T09:57:02.072Z,38.70
2017-10-20T09:59:28.468Z,38.80
2017-10-20T10:01:54.936Z,42.30
2017-10-20T10:04:21.379Z,39.60
2017-10-20T10:06:47.824Z,39.37
2017-10-20T10:09:14.269Z,42.60
2017-10-20T10:11:40.727Z,42.33
2017-10-20T10:14:07.165Z,43.50
2017-10-20T10:16:33.581Z,41.50
2017-10-20T10:19:00.004Z,45.77
2017-10-20T10:21:26.412Z,43.40
2017-10-20T10:23:52.815Z,43.20
2017-10-20T10:26:19.945Z,43.63
2017-10-20T10:28:46.348Z,43.23
2017-10-20T10:31:12.778Z,44.37
2017-10-20T10:33:39.166Z,47.13
2017-10-20T10:36:06.630Z,45.47
2017-10-20T10:38:33.761Z,47.30
2017-10-20T10:41:00.147Z,52.90
2017-10-20T10:43:26.560Z,49.00
2017-10-20T10:45:53.001Z,44.17
2017-10-20T10:48:19.420Z,46.80
2017-10-20T10:50:45.855Z,48.47
2017-10-20T10:53:12.268Z,45.20
2017-10-20T10:55:39.405Z,46.60
2017-10-20T10:58:05.821Z,45.70
2017-10-20T11:00:32.235Z,47.37
2017-10-20T11:02:58.693Z,46.63
2017-10-20T11:05:37.301Z,45.57
2017-10-20T11:08:16.010Z,48.60
2017-10-20T11:10:54.776Z,44.00
2017-10-20T11:13:21.983Z,49.30
2017-10-20T11:15:48.448Z,47.87
2017-10-20T11:18:15.608Z,48.33
2017-10-20T11:20:42.755Z,44.37
2017-10-20T11:23:09.166Z,46.77
2017-10-20T11:25:35.598Z,46.57
2017-10-20T11:28:02.018Z,48.63
2017-10-20T11:30:28.632Z,47.37
2017-10-20T11:32:55.086Z,46.40
2017-10-20T11:35:21.523Z,50.37
2017-10-20T11:37:48.052Z,47.73
2017-10-20T11:40:14.481Z,49.27
2017-10-20T11:42:40.945Z,47.70
2017-10-20T11:45:07.385Z,46.60
2017-10-20T11:47:33.850Z,47.40
2017-10-20T11:50:00.274Z,46.50
2017-10-20T11:52:27.465Z,45.90
2017-10-20T11:54:54.138Z,45.27
2017-10-20T11:57:20.539Z,46.90
2017-10-20T11:59:46.961Z,44.87
2017-10-20T12:02:13.770Z,43.07
2017-10-20T12:04:40.934Z,47.60
2017-10-20T12:07:07.337Z,45.33
2017-10-20T12:09:33.826Z,45.20
2017-10-20T12:12:00.343Z,44.43
2017-10-20T12:14:26.797Z,45.43
2017-10-20T12:16:53.323Z,45.43
2017-10-20T12:19:19.800Z,41.63
2017-10-20T12:21:46.205Z,43.63
2017-10-20T12:24:12.586Z,42.50
2017-10-20T12:26:39.737Z,42.63
2017-10-20T12:29:06.861Z,44.23
2017-10-20T12:31:33.265Z,43.63
2017-10-20T12:33:59.690Z,40.07
2017-10-20T12:36:26.103Z,40.60
2017-10-20T12:38:52.527Z,38.57
2017-10-20T12:41:19.655Z,38.93
2017-10-20T12:43:46.045Z,38.80
2017-10-20T12:46:12.423Z,40.87
2017-10-20T12:48:38.833Z,38.47
2017-10-20T12:51:05.240Z,38.30
2017-10-20T12:53:31.638Z,37.47
2017-10-20T12:55:58.779Z,37.93
2017-10-20T12:58:25.910Z,38.60
2017-10-20T13:00:52.329Z,37.13
2017-10-20T13:03:18.739Z,36.60
2017-10-20T13:05:45.197Z,34.83
2017-10-20T13:08:11.654Z,33.80
2017-10-20T13:10:38.830Z,30.73
2017-10-20T13:13:05.252Z,31.37
2017-10-20T13:15:32.457Z,29.43
2017-10-20T13:17:58.950Z,30.80
2017-10-20T13:20:25.409Z,29.20
2017-10-20T13:22:51.792Z,30.40
2017-10-20T13:25:18.939Z,30.50
2017-10-20T13:27:46.405Z,27.87
2017-10-20T13:30:13.575Z,27.63
2017-10-20T13:32:40.006Z,27.83
2017-10-20T13:35:06.397Z,26.47
2017-10-20T13:37:32.792Z,30.43
2017-10-20T13:39:59.203Z,26.50
2017-10-20T13:42:25.638Z,28.70
2017-10-20T13:44:52.024Z,29.33
2017-10-20T13:47:18.428Z,30.53
2017-10-20T13:49:44.789Z,27.63
2017-10-20T13:52:11.164Z,30.53
2017-10-20T13:54:37.576Z,29.17
2017-10-20T13:57:04.762Z,29.77
2017-10-20T13:59:31.144Z,28.00
2017-10-20T14:01:58.292Z,28.97
2017-10-20T14:04:24.692Z,28.07
2017-10-20T14:06:51.081Z,30.00
2017-10-20T14:09:18.241Z,28.17
2017-10-20T14:11:44.718Z,30.30
2017-10-20T14:14:11.111Z,26.93
2017-10-20T14:16:37.527Z,29.07
2017-10-20T14:19:03.954Z,29.80
2017-10-20T14:21:31.196Z,29.07
2017-10-20T14:23:58.340Z,30.03
2017-10-20T14:26:38.468Z,27.93
2017-10-20T14:29:17.873Z,28.47
2017-10-20T14:31:57.306Z,28.03
2017-10-20T14:34:23.705Z,29.43
2017-10-20T14:36:50.840Z,29.50
2017-10-20T14:39:17.248Z,29.10
2017-10-20T14:41:43.740Z,30.17
2017-10-20T14:44:10.911Z,30.00
2017-10-20T14:46:37.325Z,29.33
2017-10-20T14:49:04.469Z,29.67
2017-10-20T14:51:31.607Z,30.40
2017-10-20T14:53:58.037Z,30.90
2017-10-20T14:56:24.437Z,31.13
2017-10-20T14:58:50.830Z,29.80
2017-10-20T15:01:17.979Z,29.60
2017-10-20T15:03:44.430Z,28.77
2017-10-20T15:06:10.857Z,118.07
2017-10-20T15:08:37.244Z,34.87
2017-10-20T15:11:03.650Z,28.90
2017-10-20T15:13:30.081Z,29.80
2017-10-20T15:15:56.477Z,30.17
2017-10-20T15:18:23.672Z,32.70
2017-10-20T15:20:50.050Z,31.90
2017-10-20T15:23:17.168Z,34.00
2017-10-20T15:25:43.648Z,33.13
2017-10-20T15:28:10.064Z,36.07
2017-10-20T15:30:37.237Z,33.43
2017-10-20T15:33:03.681Z,34.23
2017-10-20T15:35:30.079Z,35.87
2017-10-20T15:37:56.476Z,38.87
2017-10-20T15:40:22.861Z,34.57
2017-10-20T15:42:49.266Z,36.03
2017-10-20T15:45:15.696Z,34.23
2017-10-20T15:47:42.830Z,39.87
2017-10-20T15:50:09.259Z,37.33
2017-10-20T15:52:35.715Z,37.67
2017-10-20T15:55:02.112Z,43.27
2017-10-20T15:57:28.495Z,41.07
2017-10-20T15:59:55.647Z,38.50
2017-10-20T16:02:22.787Z,41.43
2017-10-20T16:04:49.957Z,39.13
2017-10-20T16:07:16.398Z,38.37
2017-10-20T16:09:42.805Z,39.63
2017-10-20T16:12:09.962Z,46.73
2017-10-20T16:14:37.124Z,45.53
2017-10-20T16:17:03.512Z,45.00
2017-10-20T16:19:29.982Z,43.70
2017-10-20T16:21:57.145Z,42.70
2017-10-20T16:24:23.517Z,40.40
2017-10-20T16:26:49.908Z,43.47
2017-10-20T16:29:17.165Z,43.43
2017-10-20T16:31:43.532Z,44.13
2017-10-20T16:34:09.929Z,66.33
2017-10-20T16:36:36.298Z,60.03
2017-10-20T16:39:02.769Z,50.30
2017-10-20T16:41:29.225Z,46.57
2017-10-20T16:43:55.692Z,45.63
2017-10-20T16:46:22.086Z,43.57
2017-10-20T16:48:48.480Z,48.07
2017-10-20T16:51:14.860Z,49.63
2017-10-20T16:53:41.262Z,46.70
2017-10-20T16:56:08.404Z,51.40
2017-10-20T16:58:35.598Z,56.20
2017-10-20T17:01:02.021Z,63.67
2017-10-20T17:03:28.467Z,61.00
2017-10-20T17:05:54.914Z,50.10
2017-10-20T17:08:21.792Z,56.43
2017-10-20T17:10:48.159Z,57.70
2017-10-20T17:13:14.608Z,72.73
2017-10-20T17:15:40.997Z,50.63
2017-10-20T17:18:08.155Z,48.77
2017-10-20T17:20:35.340Z,51.37
2017-10-20T17:23:01.809Z,53.87
2017-10-20T17:25:28.224Z,47.67
2017-10-20T17:27:54.658Z,55.10
2017-10-20T17:30:21.078Z,54.00
2017-10-20T17:32:47.496Z,48.37
2017-10-20T17:35:13.925Z,49.13
2017-10-20T17:37:40.332Z,47.47
2017-10-20T17:40:06.745Z,55.00
2017-10-20T17:42:33.167Z,46.47
2017-10-20T17:44:59.634Z,47.00
2017-10-20T17:47:26.780Z,45.73
2017-10-20T17:49:53.946Z,51.77
2017-10-20T17:52:21.083Z,45.17
2017-10-20T17:54:48.232Z,44.10
2017-10-20T17:57:15.472Z,63.30
2017-10-20T17:59:42.656Z,57.30
2017-10-20T18:02:09.041Z,63.30
2017-10-20T18:04:35.472Z,78.80
2017-10-20T18:07:01.885Z,78.60
2017-10-20T18:09:28.269Z,53.57
2017-10-20T18:11:56.417Z,97.33
2017-10-20T18:14:22.841Z,122.93
2017-10-20T18:16:49.208Z,100.90
2017-10-20T18:19:15.616Z,83.67
2017-10-20T18:21:42.035Z,71.63
2017-10-20T18:24:09.944Z,53.17
2017-10-20T18:26:37.124Z,50.03
2017-10-20T18:29:04.290Z,56.43
2017-10-20T18:31:30.719Z,51.90
2017-10-20T18:33:57.177Z,53.90
2017-10-20T18:36:23.616Z,52.63
2017-10-20T18:38:50.059Z,49.30
2017-10-20T18:41:16.488Z,52.80
2017-10-20T18:43:42.893Z,53.73
2017-10-20T18:46:09.264Z,53.13
2017-10-20T18:48:36.476Z,49.07
2017-10-20T18:51:02.954Z,48.13
2017-10-20T18:53:29.396Z,49.80
2017-10-20T18:55:55.813Z,50.83
2017-10-20T18:58:22.973Z,51.50
2017-10-20T19:00:50.119Z,54.90
2017-10-20T19:03:17.273Z,57.40
2017-10-20T19:05:44.419Z,55.70
2017-10-20T19:08:11.594Z,52.63
2017-10-20T19:10:38.004Z,52.73
2017-10-20T19:13:05.178Z,55.10
2017-10-20T19:15:31.573Z,52.40
2017-10-20T19:17:58.789Z,53.60
2017-10-20T19:20:25.227Z,52.03
2017-10-20T19:22:52.557Z,53.10
2017-10-20T19:25:18.981Z,60.87
2017-10-20T19:27:45.435Z,60.40
2017-10-20T19:30:11.848Z,62.17
2017-10-20T19:32:38.246Z,64.27
2017-10-20T19:35:04.657Z,52.40
2017-10-20T19:37:31.043Z,59.87
2017-10-20T19:39:57.423Z,72.00
2017-10-20T19:42:23.825Z,64.00
2017-10-20T19:44:50.208Z,62.23
2017-10-20T19:47:17.452Z,62.33
2017-10-20T19:49:44.598Z,68.40
2017-10-20T19:52:11.767Z,65.13
2017-10-20T19:54:38.149Z,53.40
2017-10-20T19:57:04.558Z,67.90
2017-10-20T19:59:30.986Z,61.93
2017-10-20T20:01:57.385Z,53.70
2017-10-20T20:04:23.812Z,52.03
2017-10-20T20:06:50.965Z,57.27
2017-10-20T20:09:17.449Z,57.77
2017-10-20T20:11:43.897Z,49.83
2017-10-20T20:14:10.289Z,65.63
2017-10-20T20:16:36.698Z,69.47
2017-10-20T20:19:04.609Z,48.13
2017-10-20T20:21:31.041Z,128.77
2017-10-20T20:23:57.477Z,57.37
2017-10-20T20:26:23.908Z,59.70
2017-10-20T20:28:50.375Z,52.50
2017-10-20T20:31:18.791Z,54.03
2017-10-20T20:33:45.978Z,51.57
2017-10-20T20:36:12.486Z,48.93
2017-10-20T20:38:38.933Z,62.43
2017-10-20T20:41:05.359Z,51.80
2017-10-20T20:43:31.803Z,55.57
2017-10-20T20:45:58.241Z,50.87
2017-10-20T20:48:24.655Z,50.70
2017-10-20T20:50:51.828Z,54.30
2017-10-20T20:53:18.211Z,57.03
2017-10-20T20:55:44.601Z,49.77
2017-10-20T20:58:11.026Z,49.60
2017-10-20T21:00:37.443Z,44.73
2017-10-20T21:03:03.839Z,50.87
2017-10-20T21:05:31.004Z,50.23
2017-10-20T21:07:58.107Z,47.37
2017-10-20T21:10:24.536Z,45.80
2017-10-20T21:12:50.936Z,41.33
2017-10-20T21:15:17.412Z,43.87
2017-10-20T21:17:43.882Z,46.37
2017-10-20T21:20:10.289Z,48.37
2017-10-20T21:22:36.702Z,50.90
2017-10-20T21:25:03.135Z,43.47
2017-10-20T21:27:29.515Z,46.83
2017-10-20T21:29:56.668Z,42.60
2017-10-20T21:32:23.830Z,46.23
2017-10-20T21:34:50.952Z,42.50
2017-10-20T21:37:17.357Z,41.93
2017-10-20T21:39:43.781Z,46.70
2017-10-20T21:42:10.195Z,47.37
2017-10-20T21:44:36.676Z,44.40
2017-10-20T21:47:03.073Z,39.27
2017-10-20T21:49:29.528Z,38.37
2017-10-20T21:51:56.098Z,44.10
2017-10-20T21:54:23.233Z,42.20
2017-10-20T21:56:49.865Z,40.93
2017-10-20T21:59:16.278Z,41.87
2017-10-20T22:01:44.318Z,43.83
2017-10-20T22:04:10.725Z,44.70
2017-10-20T22:06:37.874Z,42.27
2017-10-20T22:09:04.311Z,42.80
2017-10-20T22:11:31.472Z,41.17
2017-10-20T22:13:57.901Z,47.07
2017-10-20T22:16:25.041Z,44.87
2017-10-20T22:18:52.205Z,46.80
2017-10-20T22:21:18.613Z,42.03
2017-10-20T22:23:45.787Z,46.87
2017-10-20T22:26:12.199Z,46.60
2017-10-20T22:28:38.638Z,42.47
2017-10-20T22:31:06.287Z,47.60
2017-10-20T22:33:32.746Z,45.67
2017-10-20T22:35:59.167Z,49.27
2017-10-20T22:38:25.580Z,47.20
2017-10-20T22:40:52.058Z,50.90
2017-10-20T22:43:18.497Z,46.87
2017-10-20T22:45:44.902Z,44.93
2017-10-20T22:48:12.060Z,44.07
2017-10-20T22:50:38.473Z,44.27
2017-10-20T22:53:05.676Z,43.60
2017-10-20T22:55:32.083Z,46.10
2017-10-20T22:57:59.265Z,41.10
2017-10-20T23:00:25.664Z,48.73
2017-10-20T23:02:52.073Z,47.80
2017-10-20T23:05:19.217Z,50.13
2017-10-20T23:07:46.378Z,46.13
2017-10-20T23:10:12.798Z,47.57
2017-10-20T23:12:39.996Z,40.03
2017-10-20T23:15:06.411Z,39.57
2017-10-20T23:17:32.855Z,44.93
2017-10-20T23:19:59.262Z,41.03
2017-10-20T23:22:26.429Z,42.87
2017-10-20T23:24:52.908Z,41.77
2017-10-20T23:27:19.290Z,39.00
2017-10-20T23:29:45.702Z,37.30
2017-10-20T23:32:12.906Z,38.43
2017-10-20T23:34:39.320Z,38.97
2017-10-20T23:37:05.717Z,38.80
2017-10-20T23:39:32.130Z,43.07
2017-10-20T23:42:00.020Z,42.50
2017-10-20T23:44:26.428Z,43.47
2017-10-20T23:46:52.819Z,42.07
2017-10-20T23:49:19.212Z,41.63
2017-10-20T23:51:45.613Z,38.50
2017-10-20T23:54:12.100Z,44.40
2017-10-20T23:56:38.493Z,41.07
2017-10-20T23:59:05.849Z,35.50
